Time;durP1;ratioP1;P1;durP2;ratioP2;P2;SDS_P1;SDS_P2;PMS_P1;PMS_P2;Temp;Humidity;BMP_temperature;BMP_pressure;BME280_temperature;BME280_humidity;BME280_pressure;Samples;Min_cycle;Max_cycle;Signal;HPM_P1;HPM_P2
2022/09/08 00:02:24;;;;;;;9.73;5.75;;;;;;;17.57;62.29;100406.47;5067730;28;20068;-30
2022/09/08 00:04:50;;;;;;;9.48;4.97;;;;;;;17.35;62.51;100397.66;5049074;28;20059;-28
2022/09/08 00:07:16;;;;;;;10.43;5.32;;;;;;;17.76;61.97;100396.09;5049244;28;20035;-33
2022/09/08 00:09:42;;;;;;;9.65;5.80;;;;;;;17.83;60.92;100387.81;5067493;28;20028;-30
2022/09/08 00:12:11;;;;;;;10.45;4.90;;;;;;;17.66;61.33;100398.72;5049190;28;20032;-27
2022/09/08 00:14:37;;;;;;;9.52;4.82;;;;;;;17.43;62.31;100400.69;5049313;28;20033;-28
2022/09/08 00:17:02;;;;;;;9.50;5.10;;;;;;;17.27;62.20;100396.22;5067339;28;20032;-26
2022/09/08 00:19:28;;;;;;;7.60;4.93;;;;;;;17.43;62.51;100391.78;5049501;28;20043;-30
2022/09/08 00:21:54;;;;;;;9.07;5.32;;;;;;;17.78;61.92;100412.03;5067273;28;20028;-30
2022/09/08 00:24:19;;;;;;;8.07;4.80;;;;;;;18.49;59.88;100411.69;5067486;28;20028;-28
2022/09/08 00:26:45;;;;;;;8.85;5.18;;;;;;;18.57;60.42;100419.28;5067522;28;20081;-31
2022/09/08 00:29:11;;;;;;;10.52;5.95;;;;;;;18.42;60.79;100408.41;5066823;28;20036;-27
2022/09/08 00:31:38;;;;;;;10.32;5.25;;;;;;;18.34;59.89;100436.72;5067791;28;20039;-27
2022/09/08 00:34:03;;;;;;;8.35;5.57;;;;;;;17.84;60.98;100421.81;5048987;28;20035;-27
2022/09/08 00:36:30;;;;;;;8.70;5.53;;;;;;;18.37;61.20;100430.81;5067290;28;20029;-29
2022/09/08 00:38:56;;;;;;;7.55;5.20;;;;;;;18.10;61.45;100430.09;5048642;28;20393;-27
2022/09/08 00:41:22;;;;;;;8.27;5.70;;;;;;;17.81;61.89;100433.09;5067075;28;20024;-27
2022/09/08 00:44:03;;;;;;;11.75;5.97;;;;;;;17.70;63.20;100437.59;5066776;28;20059;-28
2022/09/08 00:46:36;;;;;;;9.25;5.93;;;;;;;17.67;64.05;100421.91;5067074;28;20031;-29
2022/09/08 00:49:11;;;;;;;9.85;5.78;;;;;;;18.04;62.58;100443.56;5048522;28;20130;-29
2022/09/08 00:51:43;;;;;;;8.63;5.03;;;;;;;18.24;62.44;100442.06;5048718;28;20040;-30
2022/09/08 00:54:11;;;;;;;9.18;5.57;;;;;;;17.96;62.36;100441.34;5048501;28;20052;-32
2022/09/08 00:56:39;;;;;;;7.85;5.32;;;;;;;18.40;61.48;100441.06;5066885;28;20028;-27
2022/09/08 00:59:06;;;;;;;11.43;5.82;;;;;;;18.75;59.99;100441.50;5048509;28;20103;-27
2022/09/08 01:01:33;;;;;;;10.52;5.22;;;;;;;18.86;59.90;100444.03;5066821;28;20029;-27
2022/09/08 01:03:59;;;;;;;9.55;5.65;;;;;;;18.94;59.48;100417.53;5066610;28;20081;-29
2022/09/08 01:12:44;;;;;;;7.85;5.25;;;;;;;18.28;61.45;100449.34;5066571;28;20042;-29
2022/09/08 01:15:21;;;;;;;9.55;5.80;;;;;;;17.74;62.15;100440.59;5066064;28;20416;-28
2022/09/08 01:17:48;;;;;;;11.05;5.65;;;;;;;17.60;62.90;100427.53;5066786;28;20025;-28
2022/09/08 01:20:18;;;;;;;9.07;5.28;;;;;;;18.13;62.61;100445.78;5048413;28;20032;-28
2022/09/08 01:23:12;;;;;;;9.63;5.60;;;;;;;17.93;61.97;100449.94;5048118;28;20021;-30
2022/09/08 01:25:55;;;;;;;10.50;6.18;;;;;;;17.50;63.33;100446.31;5066277;28;20036;-29
2022/09/08 01:28:40;;;;;;;11.95;5.50;;;;;;;17.47;64.30;100428.75;5066526;28;20108;-31
2022/09/08 01:31:07;;;;;;;11.15;5.60;;;;;;;17.29;64.37;100429.13;5047930;28;20435;-29
2022/09/08 01:33:32;;;;;;;9.98;5.50;;;;;;;17.46;64.83;100439.78;5048121;28;20072;-29
2022/09/08 01:35:59;;;;;;;11.13;5.85;;;;;;;17.34;64.43;100444.53;5066044;28;20586;-28
2022/09/08 01:38:24;;;;;;;11.10;5.93;;;;;;;17.10;63.34;100428.69;5066456;28;20557;-29
2022/09/08 01:40:50;;;;;;;8.63;5.57;;;;;;;17.26;64.67;100454.72;5066249;28;20028;-28
2022/09/08 01:43:15;;;;;;;11.02;5.63;;;;;;;17.54;64.75;100433.94;5066216;28;20201;-28
2022/09/08 01:45:41;;;;;;;10.50;5.65;;;;;;;17.55;64.13;100440.13;5066380;28;20404;-29
2022/09/08 01:48:08;;;;;;;9.13;5.72;;;;;;;17.87;63.10;100422.09;5048002;28;20489;-28
2022/09/08 01:50:34;;;;;;;9.05;5.88;;;;;;;17.43;63.71;100426.84;5047733;28;20036;-30
2022/09/08 01:53:00;;;;;;;10.23;5.63;;;;;;;17.48;64.67;100419.59;5047933;28;20403;-29
2022/09/08 01:55:25;;;;;;;7.95;5.15;;;;;;;17.80;64.02;100431.47;5048054;28;20050;-29
2022/09/08 01:57:51;;;;;;;9.77;5.60;;;;;;;18.33;62.16;100428.88;5066077;28;20035;-28
2022/09/08 02:00:16;;;;;;;13.02;5.78;;;;;;;17.88;61.96;100439.13;5065997;28;20036;-28
2022/09/08 02:02:42;;;;;;;10.20;5.68;;;;;;;17.62;64.46;100436.16;5065831;28;20041;-30
2022/09/08 02:05:08;;;;;;;10.05;5.97;;;;;;;18.19;62.79;100431.22;5065575;28;20782;-30
2022/09/08 02:07:36;;;;;;;12.50;6.82;;;;;;;18.37;62.31;100430.81;5048112;28;20029;-32
2022/09/08 02:10:04;;;;;;;10.35;5.47;;;;;;;17.91;62.59;100406.22;5068633;28;20024;-27
2022/09/08 02:12:30;;;;;;;12.15;5.70;;;;;;;17.72;63.71;100413.06;5069981;28;20041;-29
2022/09/08 02:14:55;;;;;;;10.27;5.55;;;;;;;17.92;63.71;100413.25;5069315;28;20121;-28
2022/09/08 02:17:21;;;;;;;8.98;5.50;;;;;;;18.41;61.87;100404.91;5069480;28;20027;-34
2022/09/08 02:19:46;;;;;;;10.85;5.47;;;;;;;18.21;62.49;100421.78;5069365;28;20057;-29
2022/09/08 02:22:12;;;;;;;9.35;5.18;;;;;;;17.24;64.09;100408.34;5069677;28;20025;-28
2022/09/08 02:24:38;;;;;;;10.30;5.68;;;;;;;17.20;65.25;100417.16;5069447;28;20029;-33
2022/09/08 02:27:03;;;;;;;8.23;5.40;;;;;;;17.39;65.30;100394.19;5069283;28;20035;-28
2022/09/08 02:29:29;;;;;;;10.82;5.50;;;;;;;17.50;65.26;100416.66;5069381;28;20036;-32
2022/09/08 02:31:54;;;;;;;8.90;6.00;;;;;;;17.55;65.82;100414.00;5069378;28;20050;-29
2022/09/08 02:34:20;;;;;;;8.13;5.85;;;;;;;17.52;65.14;100403.72;5069913;28;20036;-33
2022/09/08 02:36:45;;;;;;;8.57;5.85;;;;;;;17.35;65.59;100398.47;5068965;28;20028;-29
2022/09/08 02:39:19;;;;;;;10.07;5.53;;;;;;;17.16;66.75;100395.31;5069244;28;20037;-28
2022/09/08 02:41:45;;;;;;;9.52;5.95;;;;;;;17.49;64.78;100404.25;5069221;28;20070;-33
2022/09/08 02:44:12;;;;;;;9.00;6.10;;;;;;;17.25;67.08;100406.44;5069372;28;20078;-29
2022/09/08 02:46:38;;;;;;;10.07;6.43;;;;;;;17.24;66.60;100400.25;5050727;28;20133;-27
2022/09/08 02:49:04;;;;;;;8.68;6.35;;;;;;;16.50;66.09;100408.00;5050847;28;20612;-29
2022/09/08 02:51:32;;;;;;;10.57;5.90;;;;;;;15.65;69.26;100400.84;5069098;28;20036;-31
2022/09/08 02:53:58;;;;;;;9.35;6.45;;;;;;;15.54;70.05;100411.66;5050927;28;20078;-28
2022/09/08 02:56:24;;;;;;;8.77;6.40;;;;;;;15.53;70.15;100415.38;5050654;28;20415;-27
2022/09/08 02:58:49;;;;;;;9.20;6.40;;;;;;;15.51;70.43;100409.44;5050485;28;20111;-29
2022/09/08 03:01:15;;;;;;;9.63;7.10;;;;;;;14.99;72.25;100394.28;5068231;28;20556;-30
2022/09/08 03:03:41;;;;;;;10.20;6.40;;;;;;;14.86;72.63;100398.88;5068420;28;20198;-28
2022/09/08 03:06:07;;;;;;;11.52;7.10;;;;;;;14.72;74.05;100419.00;5068787;28;20023;-29
2022/09/08 03:08:33;;;;;;;10.40;6.63;;;;;;;14.70;73.98;100406.88;5068679;28;20110;-33
2022/09/08 03:11:00;;;;;;;10.05;7.38;;;;;;;15.10;72.25;100412.25;5068444;28;20483;-27
2022/09/08 03:13:26;;;;;;;12.85;6.80;;;;;;;15.30;71.02;100405.59;5050106;28;20040;-29
2022/09/08 03:15:51;;;;;;;12.57;6.57;;;;;;;15.01;72.55;100417.16;5050188;28;20518;-29
2022/09/08 03:18:17;;;;;;;11.77;6.43;;;;;;;14.93;72.56;100412.16;5068484;28;20021;-33
2022/09/08 03:20:44;;;;;;;11.63;6.85;;;;;;;14.95;72.09;100393.13;5068321;28;20548;-27
2022/09/08 03:23:19;;;;;;;10.77;6.17;;;;;;;14.86;73.40;100416.88;5068178;28;20034;-29
2022/09/08 03:25:47;;;;;;;11.77;6.32;;;;;;;15.00;72.48;100414.72;5068035;28;20052;-29
2022/09/08 03:28:22;;;;;;;11.55;6.10;;;;;;;15.05;72.89;100418.31;5050175;28;20883;-27
2022/09/08 03:30:48;;;;;;;8.63;6.10;;;;;;;14.77;73.74;100400.34;5068393;28;20040;-27
2022/09/08 03:33:13;;;;;;;10.25;6.43;;;;;;;14.58;75.75;100420.31;5068009;28;20024;-28
2022/09/08 03:35:39;;;;;;;12.55;6.78;;;;;;;14.61;74.93;100407.25;5067339;28;20412;-28
2022/09/08 03:38:05;;;;;;;13.20;6.93;;;;;;;15.16;73.03;100430.09;5067297;28;20012;-28
2022/09/08 03:40:31;;;;;;;11.88;6.88;;;;;;;14.94;73.30;100418.38;5067462;28;20032;-29
2022/09/08 03:42:56;;;;;;;10.82;6.75;;;;;;;15.19;73.22;100434.97;5066694;28;20031;-31
2022/09/08 03:45:21;;;;;;;10.45;6.78;;;;;;;14.95;73.58;100420.00;5067155;28;20040;-30
2022/09/08 03:47:47;;;;;;;15.32;7.22;;;;;;;15.05;72.90;100430.94;5067061;28;20017;-29
2022/09/08 03:50:15;;;;;;;11.88;7.15;;;;;;;14.89;73.48;100426.31;5067290;28;20543;-31
2022/09/08 03:52:40;;;;;;;13.32;8.45;;;;;;;14.94;73.67;100432.59;5067755;28;20101;-28
2022/09/08 03:55:08;;;;;;;13.75;7.35;;;;;;;15.00;73.22;100434.34;5067432;28;20536;-29
2022/09/08 03:57:33;;;;;;;12.47;7.53;;;;;;;15.03;73.20;100433.84;5067468;28;20020;-30
2022/09/08 03:59:59;;;;;;;11.38;7.32;;;;;;;14.85;72.92;100426.81;5067750;28;20274;-29
2022/09/08 04:02:26;;;;;;;24.13;8.68;;;;;;;15.25;71.85;100446.63;5049183;28;20086;-29
2022/09/08 04:04:55;;;;;;;15.10;8.50;;;;;;;14.98;71.91;100432.97;5049397;28;20063;-30
2022/09/08 04:07:22;;;;;;;14.25;8.73;;;;;;;14.83;73.02;100428.91;5067286;28;20039;-26
2022/09/08 04:09:47;;;;;;;16.15;8.82;;;;;;;14.76;73.36;100424.72;5049264;28;20480;-29
2022/09/08 04:12:15;;;;;;;15.65;8.82;;;;;;;14.42;75.14;100422.63;5067186;28;20032;-28
2022/09/08 04:14:42;;;;;;;14.13;8.98;;;;;;;14.75;74.15;100421.22;5067385;28;20032;-27
2022/09/08 04:17:08;;;;;;;13.77;8.30;;;;;;;14.53;75.20;100434.44;5032625;28;20029;-31
2022/09/08 04:19:34;;;;;;;14.10;8.82;;;;;;;14.31;76.25;100442.25;5067043;28;20035;-31
2022/09/08 04:22:10;;;;;;;19.05;8.38;;;;;;;14.64;75.33;100446.22;5067244;28;20451;-28
2022/09/08 04:24:35;;;;;;;18.88;9.43;;;;;;;15.18;73.48;100444.09;5066935;28;20027;-27
2022/09/08 04:27:01;;;;;;;17.83;9.48;;;;;;;15.19;72.94;100447.59;5066988;28;20024;-31
2022/09/08 04:29:26;;;;;;;31.13;10.30;;;;;;;15.33;72.32;100458.88;5067206;28;20028;-27
2022/09/08 04:31:52;;;;;;;21.05;9.63;;;;;;;15.19;72.42;100459.13;5066805;28;20036;-29
2022/09/08 04:34:18;;;;;;;19.20;8.48;;;;;;;14.84;74.02;100457.38;5048898;28;20055;-28
2022/09/08 04:36:45;;;;;;;11.98;7.90;;;;;;;14.64;74.65;100441.66;5049066;28;20091;-27
2022/09/08 04:39:12;;;;;;;12.70;7.85;;;;;;;14.42;75.68;100449.47;5048546;28;20086;-27
2022/09/08 04:41:38;;;;;;;13.45;8.02;;;;;;;14.75;74.79;100448.09;5048951;28;20031;-27
2022/09/08 04:44:04;;;;;;;13.70;8.52;;;;;;;14.75;74.74;100458.81;5066749;28;20036;-29
2022/09/08 04:46:31;;;;;;;9.70;7.88;;;;;;;14.84;75.15;100472.69;5048687;28;20423;-28
2022/09/08 04:48:57;;;;;;;15.43;7.88;;;;;;;14.93;73.96;100457.81;5048661;28;20563;-35
2022/09/08 04:51:24;;;;;;;15.05;7.93;;;;;;;15.19;73.38;100467.19;5066790;28;20059;-27
2022/09/08 04:53:52;;;;;;;18.08;8.32;;;;;;;15.24;73.04;100453.88;5048487;28;20427;-29
2022/09/08 04:56:18;;;;;;;;;;;;;;;15.36;73.27;100477.19;5067280;28;20071;-27
2022/09/08 04:58:45;;;;;;;11.25;7.72;;;;;;;15.56;72.90;100474.84;5066890;28;19931;-27
2022/09/08 05:01:18;;;;;;;10.63;7.50;;;;;;;15.67;72.55;100482.06;5048247;28;20028;-30
2022/09/08 05:03:43;;;;;;;13.70;7.93;;;;;;;15.59;72.76;100485.16;5066609;28;20138;-30
2022/09/08 05:06:11;;;;;;;12.52;7.95;;;;;;;15.65;73.36;100480.66;5066535;28;20028;-31
2022/09/08 05:08:38;;;;;;;13.32;8.48;;;;;;;15.83;73.36;100485.03;5066340;28;20032;-32
2022/09/08 05:11:04;;;;;;;13.30;8.40;;;;;;;15.81;72.63;100481.75;5066505;28;20497;-27
2022/09/08 05:13:31;;;;;;;15.43;9.05;;;;;;;16.03;71.92;100487.25;5066639;28;20029;-29
2022/09/08 05:16:08;;;;;;;14.80;8.50;;;;;;;15.83;73.03;100479.66;5048569;28;20068;-29
2022/09/08 05:18:35;;;;;;;13.18;8.75;;;;;;;15.83;73.63;100487.72;5066413;28;20032;-30
2022/09/08 05:21:00;;;;;;;14.23;8.30;;;;;;;15.67;74.78;100487.44;5048013;28;20036;-27
2022/09/08 05:23:26;;;;;;;14.23;9.18;;;;;;;15.73;74.74;100495.59;5066321;28;20411;-28
2022/09/08 05:26:00;;;;;;;13.70;8.93;;;;;;;15.77;74.66;100486.00;5066592;28;20399;-27
2022/09/08 05:28:29;;;;;;;14.35;8.95;;;;;;;15.88;74.06;100493.19;5048263;28;20127;-28
2022/09/08 05:30:55;;;;;;;13.60;9.48;;;;;;;15.96;74.09;100497.38;5048067;28;20028;-31
2022/09/08 05:33:21;;;;;;;12.93;9.40;;;;;;;16.10;73.26;100492.44;5047908;28;20393;-27
2022/09/08 05:35:47;;;;;;;14.65;10.07;;;;;;;16.12;73.54;100487.63;5047995;28;20090;-28
2022/09/08 05:38:13;;;;;;;11.85;8.98;;;;;;;15.90;73.51;100469.56;5066275;28;20031;-31
2022/09/08 05:40:39;;;;;;;12.77;9.50;;;;;;;15.98;74.24;100487.97;5048225;28;20199;-32
2022/09/08 05:43:04;;;;;;;13.77;8.65;;;;;;;16.04;74.40;100497.75;5066028;28;20070;-29
2022/09/08 05:45:30;;;;;;;14.05;9.00;;;;;;;16.19;73.46;100480.22;5069472;28;20017;-30
2022/09/08 05:47:55;;;;;;;11.02;8.60;;;;;;;16.36;71.82;100486.41;5070127;28;20085;-27
2022/09/08 05:50:21;;;;;;;13.82;9.23;;;;;;;16.62;72.03;100497.53;5051913;28;20028;-34
2022/09/08 05:52:46;;;;;;;11.77;8.27;;;;;;;16.20;72.12;100480.00;5051989;28;20032;-27
2022/09/08 05:55:13;;;;;;;14.18;8.98;;;;;;;16.46;72.63;100494.63;5069612;28;20021;-29
2022/09/08 05:57:39;;;;;;;13.63;8.77;;;;;;;16.60;73.03;100491.59;5070020;28;20028;-28
2022/09/08 06:00:07;;;;;;;11.68;7.68;;;;;;;16.88;69.67;100501.44;5051608;28;20131;-28
2022/09/08 06:02:32;;;;;;;11.05;8.35;;;;;;;16.82;69.68;100497.03;5051206;28;20032;-31
2022/09/08 06:04:58;;;;;;;11.98;8.43;;;;;;;17.08;69.66;100500.88;5069736;28;20109;-28
2022/09/08 06:07:25;;;;;;;11.52;7.53;;;;;;;17.08;69.47;100473.91;5051666;28;20033;-30
2022/09/08 06:09:51;;;;;;;13.13;8.60;;;;;;;17.21;67.83;100478.91;5051711;28;20032;-30
2022/09/08 06:12:16;;;;;;;11.57;7.95;;;;;;;17.43;67.68;100481.56;5069752;28;20431;-28
2022/09/08 06:14:42;;;;;;;13.07;8.30;;;;;;;17.62;68.17;100482.00;5070028;28;20103;-27
2022/09/08 06:17:07;;;;;;;14.45;7.93;;;;;;;18.00;66.08;100491.03;5050989;28;20035;-31
2022/09/08 06:19:33;;;;;;;11.32;8.00;;;;;;;18.12;65.16;100493.50;5069506;28;20077;-27
2022/09/08 06:21:58;;;;;;;12.23;7.65;;;;;;;18.06;65.01;100484.59;5069272;28;20152;-29
2022/09/08 06:24:24;;;;;;;11.90;7.82;;;;;;;18.21;64.74;100497.38;5069644;28;20029;-28
2022/09/08 06:27:03;;;;;;;10.82;6.88;;;;;;;18.13;66.06;100491.66;5051530;28;20056;-29
2022/09/08 06:29:41;;;;;;;10.52;7.30;;;;;;;18.25;64.96;100486.88;5051395;28;20056;-31
2022/09/08 06:32:42;;;;;;;12.30;7.63;;;;;;;18.43;64.08;100486.47;5051279;28;20065;-29
2022/09/08 06:35:16;;;;;;;13.93;7.22;;;;;;;18.20;64.04;100479.53;5055201;28;20048;-28
2022/09/08 06:37:51;;;;;;;10.77;7.10;;;;;;;18.28;64.39;100459.34;5050933;28;20434;-27
2022/09/08 06:40:46;;;;;;;10.13;7.10;;;;;;;18.45;64.49;100484.31;5050729;28;20463;-31
2022/09/08 06:43:24;;;;;;;12.48;7.22;;;;;;;18.43;64.10;100481.06;5013191;28;20086;-28
2022/09/08 06:45:55;;;;;;;11.32;6.47;;;;;;;18.66;64.13;100481.72;5050933;28;20135;-28
2022/09/08 06:48:31;;;;;;;10.90;7.07;;;;;;;18.73;63.99;100484.19;5068996;28;20087;-28
2022/09/08 06:51:05;;;;;;;12.88;7.70;;;;;;;18.99;63.44;100479.75;5068870;28;20500;-28
2022/09/08 06:54:09;;;;;;;11.93;7.65;;;;;;;19.01;62.64;100488.41;5050712;28;20115;-29
2022/09/08 06:56:59;;;;;;;11.30;7.65;;;;;;;18.94;64.67;100498.63;5038345;28;20741;-30
2022/09/08 06:59:53;;;;;;;12.20;6.55;;;;;;;19.35;61.60;100504.16;5069022;28;20081;-33
2022/09/08 07:02:21;;;;;;;15.50;7.05;;;;;;;19.59;61.02;100499.88;5068470;28;20029;-28
2022/09/08 07:05:21;;;;;;;;;;;;;;;19.90;58.46;100499.97;5050962;28;20062;-31
2022/09/08 07:08:00;;;;;;;11.57;6.80;;;;;;;19.79;59.19;100490.22;4986627;28;19964;-29
2022/09/08 07:10:33;;;;;;;13.80;7.13;;;;;;;19.96;60.17;100493.47;5058643;28;20796;-28
2022/09/08 07:13:30;;;;;;;13.90;7.20;;;;;;;19.78;60.44;100485.91;5050158;28;20033;-28
2022/09/08 07:16:14;;;;;;;14.07;7.10;;;;;;;20.05;59.77;100491.84;5050527;28;20032;-28
2022/09/08 07:18:50;;;;;;;12.88;6.03;;;;;;;20.15;59.48;100501.06;5068479;28;20107;-28
2022/09/08 07:21:33;;;;;;;11.93;6.57;;;;;;;20.40;57.93;100498.28;5067908;28;20028;-30
2022/09/08 07:24:01;;;;;;;13.38;6.50;;;;;;;20.39;58.45;100499.41;5068092;28;20039;-27
2022/09/08 07:26:29;;;;;;;;;;;;;;;20.47;58.78;100492.59;5050689;28;20028;-27
2022/09/08 07:29:03;;;;;;;11.57;6.60;;;;;;;20.44;57.03;100488.53;5068064;28;20395;-28
2022/09/08 07:31:28;;;;;;;10.68;6.10;;;;;;;20.52;56.39;100500.72;5049956;28;20033;-28
2022/09/08 07:34:02;;;;;;;10.77;5.95;;;;;;;20.68;58.02;100501.53;5068111;28;20093;-28
2022/09/08 07:36:44;;;;;;;11.13;6.68;;;;;;;20.71;56.71;100505.56;5068201;28;20032;-29
2022/09/08 07:39:31;;;;;;;11.55;5.90;;;;;;;20.79;57.23;100489.53;5049849;28;20093;-28
2022/09/08 07:42:00;;;;;;;9.82;5.88;;;;;;;21.09;55.80;100492.44;5050057;28;20153;-30
2022/09/08 07:44:26;;;;;;;10.15;5.82;;;;;;;21.37;54.84;100520.75;5067748;28;20423;-29
2022/09/08 07:46:58;;;;;;;9.50;5.50;;;;;;;21.05;54.22;100492.97;5067704;28;20085;-29
2022/09/08 07:49:42;;;;;;;10.82;5.50;;;;;;;21.33;54.48;100497.97;5049946;28;20032;-28
2022/09/08 07:52:22;;;;;;;10.35;5.45;;;;;;;21.60;56.45;100482.09;5068113;28;20024;-30
2022/09/08 07:55:12;;;;;;;10.02;5.95;;;;;;;21.80;52.96;100502.03;5067830;28;20119;-29
2022/09/08 07:57:52;;;;;;;8.38;5.82;;;;;;;21.88;52.36;100498.72;5049973;28;20039;-28
2022/09/08 08:00:23;;;;;;;9.25;5.80;;;;;;;22.02;53.13;100494.25;5049648;28;20038;-31
2022/09/08 08:02:58;;;;;;;9.30;5.65;;;;;;;22.32;52.79;100486.94;5049596;28;20032;-27
2022/09/08 08:05:48;;;;;;;11.48;6.20;;;;;;;22.37;52.36;100488.81;5067640;28;20033;-29
2022/09/08 08:08:23;;;;;;;8.23;5.72;;;;;;;22.64;52.83;100499.13;5049045;28;20028;-30
2022/09/08 08:11:03;;;;;;;9.63;5.25;;;;;;;22.86;51.40;100496.69;5049325;28;20393;-28
2022/09/08 08:14:17;;;;;;;7.60;5.40;;;;;;;22.82;50.42;100497.53;5049047;28;20742;-28
2022/09/08 08:16:48;;;;;;;10.02;5.15;;;;;;;22.96;49.91;100479.41;5049248;28;20036;-32
2022/09/08 08:19:35;;;;;;;8.07;5.60;;;;;;;22.84;50.46;100485.28;5049207;28;20029;-28
2022/09/08 08:22:26;;;;;;;9.43;5.30;;;;;;;23.00;51.88;100457.88;5049037;28;20032;-29
2022/09/08 08:25:14;;;;;;;11.13;5.93;;;;;;;23.69;49.48;100495.59;5049207;28;20036;-29
2022/09/08 08:27:46;;;;;;;7.00;4.90;;;;;;;23.81;48.40;100504.13;5049134;28;20021;-32
2022/09/08 08:30:19;;;;;;;9.10;5.50;;;;;;;23.88;47.51;100490.94;5048888;28;20035;-29
2022/09/08 08:32:53;;;;;;;9.77;5.90;;;;;;;23.78;50.10;100500.09;5048816;28;20029;-28
2022/09/08 08:35:40;;;;;;;8.57;5.30;;;;;;;24.06;47.77;100502.91;5049018;28;20042;-31
2022/09/08 08:38:06;;;;;;;;;;;;;;;24.24;46.61;100504.75;5049542;28;20020;-28
2022/09/08 08:40:50;;;;;;;9.30;5.20;;;;;;;24.52;47.03;100498.56;5066871;28;19912;-27
2022/09/08 08:43:25;;;;;;;8.65;5.32;;;;;;;24.50;46.86;100504.34;5048510;28;20278;-27
2022/09/08 08:46:14;;;;;;;8.95;5.05;;;;;;;24.42;45.48;100483.19;5067215;28;20024;-27
2022/09/08 08:48:45;;;;;;;7.32;4.85;;;;;;;24.66;46.15;100502.09;5048809;28;20067;-27
2022/09/08 08:51:42;;;;;;;9.50;4.80;;;;;;;24.89;46.29;100483.94;5066604;28;20522;-28
2022/09/08 08:54:45;;;;;;;7.50;4.90;;;;;;;25.12;46.96;100482.06;5067052;28;20726;-30
2022/09/08 08:57:30;;;;;;;7.20;4.97;;;;;;;24.70;46.03;100473.13;5066533;28;20060;-29
2022/09/08 08:59:55;;;;;;;11.75;5.70;;;;;;;25.11;44.41;100469.56;5048891;28;20511;-28
2022/09/08 09:03:03;;;;;;;9.73;5.25;;;;;;;25.19;45.91;100463.38;5066774;28;20056;-30
2022/09/08 09:05:31;;;;;;;8.95;5.22;;;;;;;25.44;45.50;100450.28;5037769;28;20055;-30
2022/09/08 09:08:22;;;;;;;7.97;5.22;;;;;;;25.65;42.78;100462.31;5066657;28;20107;-30
2022/09/08 09:10:49;;;;;;;9.23;4.93;;;;;;;25.72;43.97;100447.41;5066520;28;20056;-27
2022/09/08 09:13:35;;;;;;;7.43;4.55;;;;;;;25.94;41.92;100441.94;5066520;28;20503;-29
2022/09/08 09:16:52;;;;;;;10.60;4.72;;;;;;;25.62;42.41;100445.72;5048399;28;20471;-29
2022/09/08 09:19:42;;;;;;;9.82;4.50;;;;;;;25.95;40.33;100438.09;5043173;28;20036;-29
2022/09/08 09:22:37;;;;;;;6.43;4.50;;;;;;;26.04;41.59;100433.47;5070674;28;20028;-29
2022/09/08 09:25:14;;;;;;;7.57;4.60;;;;;;;25.88;41.64;100404.91;5052308;28;20403;-30
2022/09/08 09:27:46;;;;;;;7.70;4.47;;;;;;;26.33;41.09;100420.41;5052544;28;20561;-30
2022/09/08 09:30:12;;;;;;;8.32;4.57;;;;;;;26.60;39.83;100417.50;5052146;28;20073;-29
2022/09/08 09:32:52;;;;;;;8.68;4.80;;;;;;;26.41;40.75;100425.13;5052152;28;20036;-29
2022/09/08 09:35:49;;;;;;;6.93;4.22;;;;;;;26.32;41.15;100418.81;5070501;28;20107;-29
2022/09/08 09:38:48;;;;;;;6.88;5.20;;;;;;;26.12;40.69;100425.66;5070697;28;20497;-29
2022/09/08 09:41:16;;;;;;;7.40;4.65;;;;;;;26.68;42.96;100421.34;5070085;28;20181;-28
2022/09/08 09:44:19;;;;;;;7.40;4.25;;;;;;;27.06;38.19;100423.50;5070454;28;20093;-29
2022/09/08 09:47:26;;;;;;;8.35;4.65;;;;;;;27.08;37.61;100417.72;5070448;28;20032;-32
2022/09/08 09:50:22;;;;;;;8.57;4.20;;;;;;;27.22;37.01;100412.88;5031902;28;20563;-27
2022/09/08 09:52:55;;;;;;;6.35;4.10;;;;;;;27.03;37.70;100414.00;5070094;28;20067;-29
2022/09/08 09:55:33;;;;;;;5.40;3.92;;;;;;;27.50;35.40;100407.88;5051905;28;20049;-28
2022/09/08 09:58:26;;;;;;;5.25;3.92;;;;;;;27.78;36.91;100391.06;5069655;28;20034;-29
2022/09/08 10:01:02;;;;;;;8.20;4.10;;;;;;;28.04;35.36;100394.56;5069850;28;20040;-29
2022/09/08 10:03:48;;;;;;;8.00;3.83;;;;;;;27.92;35.23;100386.22;5069641;28;20068;-29
2022/09/08 10:06:23;;;;;;;5.97;3.97;;;;;;;28.28;35.21;100381.38;5069739;28;20056;-29
2022/09/08 10:09:10;;;;;;;6.95;3.90;;;;;;;28.31;35.00;100387.00;5051877;28;20262;-28
2022/09/08 10:12:00;;;;;;;7.50;3.67;;;;;;;28.44;35.17;100385.16;5069594;28;20063;-29
2022/09/08 10:14:32;;;;;;;7.60;3.90;;;;;;;28.61;33.22;100379.59;5069571;28;20031;-28
2022/09/08 10:17:19;;;;;;;7.15;3.90;;;;;;;28.62;34.76;100372.16;5051246;28;20024;-28
2022/09/08 10:20:03;;;;;;;6.13;3.95;;;;;;;28.79;34.18;100380.31;5051645;28;20032;-31
2022/09/08 10:22:47;;;;;;;4.78;3.45;;;;;;;28.93;32.56;100377.28;5069512;28;20040;-30
2022/09/08 10:25:18;;;;;;;5.20;3.53;;;;;;;28.93;32.67;100373.72;5051054;28;20035;-28
2022/09/08 10:27:56;;;;;;;8.57;3.75;;;;;;;29.48;33.13;100364.34;5069643;28;20037;-31
2022/09/08 10:30:27;;;;;;;;;;;;;;;29.52;30.77;100368.03;5069260;28;20111;-29
2022/09/08 10:33:07;;;;;;;7.45;3.83;;;;;;;29.18;31.81;100353.50;5069369;28;19985;-28
2022/09/08 10:35:46;;;;;;;4.88;3.50;;;;;;;29.30;31.42;100343.69;5050949;28;20043;-32
2022/09/08 10:38:33;;;;;;;5.10;3.25;;;;;;;28.83;32.01;100353.78;5051226;28;20025;-28
2022/09/08 10:41:11;;;;;;;6.35;3.38;;;;;;;29.36;30.57;100342.34;5068986;28;20024;-34
2022/09/08 10:43:51;;;;;;;6.50;3.78;;;;;;;29.30;30.94;100343.69;5069126;28;20029;-30
2022/09/08 10:46:20;;;;;;;4.63;3.42;;;;;;;29.67;30.37;100335.53;5069139;28;20480;-31
2022/09/08 10:49:10;;;;;;;5.78;3.65;;;;;;;30.31;29.80;100321.19;5069064;28;20058;-31
2022/09/08 10:51:38;;;;;;;4.93;3.33;;;;;;;29.74;28.91;100320.13;5068882;28;20108;-30
2022/09/08 10:54:26;;;;;;;5.95;3.42;;;;;;;30.13;30.28;100322.53;5069033;28;20025;-31
2022/09/08 10:56:58;;;;;;;4.95;3.38;;;;;;;30.24;30.23;100310.72;5068922;28;20032;-30
2022/09/08 10:59:42;;;;;;;6.15;3.28;;;;;;;29.84;31.62;100307.88;5050872;28;20111;-32
2022/09/08 11:02:28;;;;;;;7.03;3.42;;;;;;;30.11;29.13;100278.88;5068531;28;20025;-30
2022/09/08 11:05:20;;;;;;;6.93;3.65;;;;;;;30.38;29.75;100296.66;5050264;28;20063;-29
2022/09/08 11:08:07;;;;;;;5.03;3.30;;;;;;;30.38;28.43;100290.31;5050635;28;20040;-32
2022/09/08 11:11:02;;;;;;;8.48;4.32;;;;;;;31.02;28.78;100288.66;5050523;28;20407;-28
2022/09/08 11:13:33;;;;;;;6.32;3.25;;;;;;;30.83;27.11;100289.25;5068814;28;20032;-28
2022/09/08 11:16:23;;;;;;;6.35;3.50;;;;;;;30.86;27.54;100280.31;5050394;28;20025;-29
2022/09/08 11:19:22;;;;;;;7.07;3.65;;;;;;;31.14;27.03;100276.75;5068228;28;20738;-27
2022/09/08 11:21:53;;;;;;;5.70;3.40;;;;;;;31.64;27.35;100270.59;5068563;28;20028;-30
2022/09/08 11:24:22;;;;;;;6.15;3.10;;;;;;;31.72;26.79;100270.75;5050432;28;20029;-28
2022/09/08 11:27:06;;;;;;;6.15;3.05;;;;;;;31.50;26.67;100261.16;5068081;28;20036;-33
2022/09/08 11:29:38;;;;;;;5.05;3.10;;;;;;;31.19;27.04;100248.94;5068110;28;20036;-34
2022/09/08 11:32:32;;;;;;;5.75;3.53;;;;;;;31.40;25.98;100254.19;5050135;28;20060;-28
2022/09/08 11:35:13;;;;;;;6.10;3.22;;;;;;;31.74;26.77;100254.66;5049858;28;20043;-31
2022/09/08 11:38:00;;;;;;;6.07;3.10;;;;;;;31.42;27.13;100249.13;5068062;28;20028;-28
2022/09/08 11:40:37;;;;;;;;;;;;;;;31.70;26.74;100256.53;5068540;28;20032;-30
2022/09/08 11:43:20;;;;;;;5.53;3.20;;;;;;;32.20;25.60;100254.94;5066893;28;19939;-31
2022/09/08 11:46:07;;;;;;;6.25;3.25;;;;;;;32.27;26.62;100266.13;5067839;28;20024;-32
2022/09/08 11:48:35;;;;;;;4.15;2.88;;;;;;;32.60;26.05;100259.34;5067704;28;20091;-30
2022/09/08 11:51:07;;;;;;;5.57;2.95;;;;;;;32.14;25.25;100259.13;5067806;28;20033;-33
2022/09/08 11:53:38;;;;;;;4.85;3.10;;;;;;;32.44;24.66;100251.91;5067762;28;20032;-32
2022/09/08 11:56:22;;;;;;;4.88;2.90;;;;;;;32.83;25.01;100257.47;5067833;28;20028;-30
2022/09/08 11:59:06;;;;;;;6.60;2.83;;;;;;;32.69;25.18;100248.09;5067442;28;20185;-32